Time;durP1;ratioP1;P1;durP2;ratioP2;P2;SDS_P1;SDS_P2;PMS_P1;PMS_P2;Temp;Humidity;BMP_temperature;BMP_pressure;BME280_temperature;BME280_humidity;BME280_pressure;Samples;Min_cycle;Max_cycle;Signal;HPM_P1;HPM_P2
2022/05/02 00:01:26;;;;;;;17.07;14.60;;;;;;;8.57;100.00;100340.16;5060582;28;20227;-61
2022/05/02 00:03:52;;;;;;;16.07;14.27;;;;;;;8.52;100.00;100339.47;5077689;28;20169;-60
2022/05/02 00:06:17;;;;;;;15.47;13.87;;;;;;;8.48;100.00;100341.34;5072346;28;20180;-59
2022/05/02 00:08:43;;;;;;;15.90;14.17;;;;;;;8.37;100.00;100338.38;5072717;28;20197;-59
2022/05/02 00:11:08;;;;;;;15.63;13.43;;;;;;;8.38;100.00;100335.75;5071112;28;20243;-60
2022/05/02 00:13:34;;;;;;;15.03;13.43;;;;;;;8.37;100.00;100336.66;5079514;28;20179;-59
2022/05/02 00:15:59;;;;;;;15.47;13.83;;;;;;;8.32;100.00;100336.00;5072076;28;20243;-60
2022/05/02 00:18:25;;;;;;;17.67;13.63;;;;;;;8.31;100.00;100328.38;5072402;28;20185;-60
2022/05/02 00:20:50;;;;;;;15.60;13.93;;;;;;;8.27;100.00;100331.97;5068593;28;20259;-59
2022/05/02 00:23:15;;;;;;;14.70;12.93;;;;;;;8.21;100.00;100333.88;5082085;28;20183;-59
2022/05/02 00:25:40;;;;;;;16.53;14.73;;;;;;;8.14;100.00;100324.78;5072146;28;20183;-59
2022/05/02 00:28:11;;;;;;;17.50;14.27;;;;;;;8.04;100.00;100329.44;5072276;28;20176;-60
2022/05/02 00:30:36;;;;;;;16.50;14.80;;;;;;;8.14;100.00;100326.50;5066804;28;20248;-60
2022/05/02 00:33:01;;;;;;;18.03;15.70;;;;;;;8.12;100.00;100325.72;5083590;28;20670;-60
2022/05/02 00:35:27;;;;;;;16.30;14.60;;;;;;;8.11;100.00;100327.44;5072232;28;20192;-61
2022/05/02 00:37:52;;;;;;;16.90;15.10;;;;;;;8.16;100.00;100317.00;5071844;28;20507;-59
2022/05/02 00:40:18;;;;;;;15.40;13.80;;;;;;;8.08;100.00;100323.28;5064197;28;20171;-60
2022/05/02 00:42:44;;;;;;;17.17;13.57;;;;;;;8.08;100.00;100312.22;5085963;28;20626;-59
2022/05/02 00:45:12;;;;;;;16.30;14.47;;;;;;;8.12;100.00;100315.47;5072417;28;20184;-60
2022/05/02 00:47:38;;;;;;;16.63;13.57;;;;;;;8.07;100.00;100316.50;5071555;28;20180;-60
2022/05/02 00:50:05;;;;;;;15.83;14.23;;;;;;;8.04;100.00;100306.38;5052385;28;20288;-60
2022/05/02 00:52:30;;;;;;;14.50;13.10;;;;;;;8.05;100.00;100308.06;5087301;28;20253;-60
2022/05/02 00:54:56;;;;;;;17.10;14.73;;;;;;;7.93;100.00;100300.84;5072353;28;20212;-60
2022/05/02 00:57:22;;;;;;;16.00;14.03;;;;;;;7.97;100.00;100299.00;5071894;28;20259;-60
2022/05/02 00:59:48;;;;;;;15.50;13.90;;;;;;;7.91;100.00;100300.06;5072087;28;20171;-60
2022/05/02 01:02:15;;;;;;;17.30;14.33;;;;;;;7.85;100.00;100302.88;5050262;28;20234;-60
2022/05/02 01:04:42;;;;;;;15.70;14.20;;;;;;;7.81;100.00;100296.22;5072150;28;20184;-59
2022/05/02 01:07:19;;;;;;;16.47;13.87;;;;;;;7.82;100.00;100301.28;5071406;28;20189;-59
2022/05/02 01:09:49;;;;;;;15.47;13.97;;;;;;;7.81;100.00;100304.72;5070589;28;20256;-60
2022/05/02 01:12:24;;;;;;;18.50;15.03;;;;;;;7.80;100.00;100307.34;5077469;28;20226;-60
2022/05/02 01:14:55;;;;;;;15.40;13.80;;;;;;;7.79;100.00;100295.44;5071843;28;20811;-60
2022/05/02 01:17:20;;;;;;;15.23;13.73;;;;;;;7.78;100.00;100306.56;5071432;28;20251;-60
2022/05/02 01:19:47;;;;;;;16.67;14.00;;;;;;;7.72;100.00;100297.44;5071934;28;20212;-59
2022/05/02 01:22:13;;;;;;;14.03;12.63;;;;;;;7.68;100.00;100301.84;5077492;28;20293;-59
2022/05/02 01:24:46;;;;;;;13.80;12.37;;;;;;;7.62;100.00;100296.94;5071899;28;20192;-60
2022/05/02 01:27:13;;;;;;;15.37;12.00;;;;;;;7.66;100.00;100295.94;5071497;28;20205;-60
2022/05/02 01:29:42;;;;;;;15.23;13.47;;;;;;;7.62;100.00;100296.13;5071597;28;20174;-60
2022/05/02 01:32:09;;;;;;;14.40;12.87;;;;;;;7.59;100.00;100300.47;5077240;28;20231;-59
2022/05/02 01:34:36;;;;;;;15.53;12.83;;;;;;;7.63;100.00;100298.63;5072015;28;20201;-60
2022/05/02 01:37:02;;;;;;;15.40;13.57;;;;;;;7.53;100.00;100303.25;5073669;28;20537;-60
2022/05/02 01:39:29;;;;;;;14.73;13.23;;;;;;;7.51;100.00;100301.66;5075681;28;20258;-60
2022/05/02 01:41:55;;;;;;;17.73;14.17;;;;;;;7.53;100.00;100302.41;5080078;28;20313;-60
2022/05/02 01:44:20;;;;;;;15.10;13.50;;;;;;;7.56;100.00;100300.56;5076528;28;20175;-60
2022/05/02 01:46:46;;;;;;;15.47;13.97;;;;;;;7.55;100.00;100293.81;5067637;28;20254;-59
2022/05/02 01:49:11;;;;;;;16.07;14.47;;;;;;;7.43;100.00;100299.41;5061738;28;20187;-60
2022/05/02 01:51:36;;;;;;;17.07;14.13;;;;;;;7.41;100.00;100294.31;5057337;28;20319;-61
2022/05/02 01:54:02;;;;;;;16.50;14.80;;;;;;;7.41;100.00;100302.00;5058756;28;20254;-60
2022/05/02 01:56:27;;;;;;;16.40;14.30;;;;;;;7.34;100.00;100297.19;5054998;28;20179;-59
2022/05/02 01:58:53;;;;;;;17.17;14.43;;;;;;;7.36;100.00;100297.97;5055525;28;20642;-60
2022/05/02 02:01:18;;;;;;;15.40;13.67;;;;;;;7.35;100.00;100298.84;5060929;28;20235;-60
2022/05/02 02:03:44;;;;;;;14.23;12.77;;;;;;;7.35;100.00;100289.44;5067199;28;20184;-60
2022/05/02 02:06:10;;;;;;;14.97;13.47;;;;;;;7.34;100.00;100290.31;5055746;28;20320;-61
2022/05/02 02:08:35;;;;;;;14.30;12.70;;;;;;;7.31;100.00;100298.13;5075303;28;20278;-60
2022/05/02 02:11:03;;;;;;;14.63;13.20;;;;;;;7.30;100.00;100291.34;5064551;28;20226;-59
2022/05/02 02:13:30;;;;;;;14.17;12.67;;;;;;;7.24;100.00;100289.88;5065573;28;20176;-61
2022/05/02 02:15:56;;;;;;;15.33;13.10;;;;;;;7.22;100.00;100291.63;5074666;28;20752;-60
2022/05/02 02:18:21;;;;;;;17.10;13.60;;;;;;;7.20;100.00;100292.59;5074508;28;20176;-60
2022/05/02 02:20:49;;;;;;;17.73;13.50;;;;;;;7.22;100.00;100283.97;5064450;28;20233;-60
2022/05/02 02:23:15;;;;;;;14.43;12.93;;;;;;;7.18;100.00;100284.97;5074311;28;20181;-60
2022/05/02 02:25:42;;;;;;;15.07;13.27;;;;;;;7.14;100.00;100280.84;5073444;28;20175;-60
2022/05/02 02:28:07;;;;;;;15.57;13.97;;;;;;;7.10;100.00;100276.75;5074321;28;20178;-60
2022/05/02 02:30:33;;;;;;;14.17;12.83;;;;;;;7.09;100.00;100277.63;5064330;28;20270;-59
2022/05/02 02:32:59;;;;;;;14.87;13.10;;;;;;;7.07;100.00;100282.81;5061413;28;20502;-59
2022/05/02 02:35:25;;;;;;;14.40;13.00;;;;;;;7.05;100.00;100279.47;5074684;28;20206;-61
2022/05/02 02:37:51;;;;;;;14.13;12.70;;;;;;;7.04;100.00;100284.66;5074195;28;20169;-60
2022/05/02 02:40:17;;;;;;;14.33;12.90;;;;;;;7.01;100.00;100279.63;5062884;28;20177;-60
2022/05/02 02:42:42;;;;;;;17.07;13.33;;;;;;;7.03;100.00;100281.25;5073757;28;20196;-59
2022/05/02 02:45:08;;;;;;;14.67;13.17;;;;;;;7.00;100.00;100281.38;5062676;28;20307;-59
2022/05/02 02:47:34;;;;;;;14.43;12.43;;;;;;;6.99;100.00;100276.31;5053397;28;20262;-59
2022/05/02 02:49:59;;;;;;;16.47;13.40;;;;;;;6.94;100.00;100277.28;5054431;28;20276;-61
2022/05/02 02:52:25;;;;;;;17.17;13.07;;;;;;;6.82;100.00;100272.63;5060018;28;20232;-61
2022/05/02 02:54:50;;;;;;;14.87;13.37;;;;;;;6.80;100.00;100259.09;5054396;28;20195;-60
2022/05/02 02:57:15;;;;;;;16.87;13.47;;;;;;;6.88;100.00;100263.91;5052544;28;20708;-61
2022/05/02 02:59:41;;;;;;;14.87;13.13;;;;;;;6.85;100.00;100264.03;5054019;28;20225;-59
2022/05/02 03:02:07;;;;;;;13.23;11.90;;;;;;;6.83;100.00;100269.19;5044980;28;20228;-59
2022/05/02 03:07:18;;;;;;;14.07;12.77;;;;;;;6.82;100.00;100259.03;5063079;28;20572;-60
2022/05/02 03:09:43;;;;;;;14.13;12.73;;;;;;;6.76;100.00;100250.69;5073816;28;20284;-61
2022/05/02 03:12:09;;;;;;;14.73;12.93;;;;;;;6.76;100.00;100252.38;5062815;28;20884;-61
2022/05/02 03:14:34;;;;;;;13.77;12.47;;;;;;;6.75;100.00;100251.56;5073857;28;20237;-60
2022/05/02 03:17:00;;;;;;;17.67;12.90;;;;;;;6.72;100.00;100248.28;5078508;28;20683;-60
2022/05/02 03:19:26;;;;;;;14.87;12.80;;;;;;;6.70;100.00;100244.94;5074285;28;20205;-59
2022/05/02 03:21:51;;;;;;;14.57;12.30;;;;;;;6.66;100.00;100239.13;5062704;28;20230;-60
2022/05/02 03:24:17;;;;;;;14.43;12.93;;;;;;;6.69;100.00;100244.13;5073729;28;20186;-60
2022/05/02 03:26:42;;;;;;;16.63;13.33;;;;;;;6.68;100.00;100245.00;5071792;28;20279;-60
2022/05/02 03:29:07;;;;;;;14.47;12.50;;;;;;;6.66;100.00;100246.81;5073943;28;20648;-60
2022/05/02 03:31:32;;;;;;;14.83;13.23;;;;;;;6.63;100.00;100242.59;5029341;28;20222;-60
2022/05/02 03:33:58;;;;;;;14.57;12.10;;;;;;;6.59;100.00;100242.78;5069352;28;20520;-60
2022/05/02 03:36:23;;;;;;;14.87;12.37;;;;;;;6.57;100.00;100240.31;5071803;28;20204;-61
2022/05/02 03:38:48;;;;;;;13.07;11.67;;;;;;;6.54;100.00;100237.03;5073572;28;20696;-59
2022/05/02 03:41:14;;;;;;;13.30;12.00;;;;;;;6.49;100.00;100236.31;5059639;28;20363;-60
2022/05/02 03:43:39;;;;;;;14.77;12.40;;;;;;;6.52;100.00;100236.22;5056151;28;20542;-60
2022/05/02 03:46:05;;;;;;;12.93;11.63;;;;;;;6.50;100.00;100231.19;5053230;28;20205;-61
2022/05/02 03:48:30;;;;;;;14.67;13.03;;;;;;;6.42;100.00;100233.16;5052188;28;20188;-60
2022/05/02 03:50:55;;;;;;;13.27;11.87;;;;;;;6.46;100.00;100232.16;5050296;28;20238;-61
2022/05/02 03:53:21;;;;;;;14.13;12.50;;;;;;;6.46;100.00;100237.25;5061857;28;20568;-60
2022/05/02 03:55:47;;;;;;;12.77;11.40;;;;;;;6.50;100.00;100235.44;5051462;28;20284;-59
2022/05/02 03:58:13;;;;;;;12.63;11.37;;;;;;;6.47;100.00;100231.28;5052644;28;20171;-60
2022/05/02 04:00:39;;;;;;;13.80;12.37;;;;;;;6.45;100.00;100233.88;5047547;28;20354;-59
2022/05/02 04:03:04;;;;;;;13.40;12.00;;;;;;;6.51;100.00;100239.66;5084045;28;20252;-60
2022/05/02 04:05:29;;;;;;;16.10;12.23;;;;;;;6.45;100.00;100230.50;5072780;28;20191;-61
2022/05/02 04:07:55;;;;;;;13.00;11.67;;;;;;;6.44;100.00;100228.84;5072079;28;20177;-60
2022/05/02 04:10:21;;;;;;;12.60;11.33;;;;;;;6.44;100.00;100229.66;5064386;28;20176;-61
2022/05/02 04:12:46;;;;;;;15.40;12.77;;;;;;;6.47;100.00;100233.81;5085985;28;20571;-60
2022/05/02 04:15:12;;;;;;;14.77;12.73;;;;;;;6.51;100.00;100226.88;5071213;28;20602;-61
2022/05/02 04:17:38;;;;;;;14.23;12.20;;;;;;;6.53;100.00;100222.56;5072124;28;20223;-60
2022/05/02 04:20:05;;;;;;;13.20;11.90;;;;;;;6.52;100.00;100226.00;5057987;28;20182;-61
2022/05/02 04:22:30;;;;;;;14.63;12.43;;;;;;;6.50;100.00;100231.19;5067578;28;20178;-60
2022/05/02 04:24:56;;;;;;;15.03;11.77;;;;;;;6.57;100.00;100229.22;5052438;28;20208;-61
2022/05/02 04:27:21;;;;;;;16.00;12.80;;;;;;;6.54;100.00;100227.63;5052255;28;20195;-60
2022/05/02 04:29:46;;;;;;;16.50;13.23;;;;;;;6.55;100.00;100225.88;5052591;28;20185;-60
2022/05/02 04:32:12;;;;;;;14.50;13.10;;;;;;;6.61;100.00;100226.50;5057884;28;20228;-62
2022/05/02 04:34:37;;;;;;;17.30;13.40;;;;;;;6.66;100.00;100226.34;5052674;28;20193;-60
2022/05/02 04:37:02;;;;;;;16.67;12.97;;;;;;;6.79;100.00;100234.41;5052037;28;20174;-61
2022/05/02 04:39:28;;;;;;;15.87;12.83;;;;;;;6.84;100.00;100237.63;5059482;28;20178;-61
2022/05/02 04:41:53;;;;;;;14.77;12.67;;;;;;;6.97;100.00;100232.03;5075604;28;20598;-60
2022/05/02 04:44:18;;;;;;;14.43;12.03;;;;;;;7.04;100.00;100233.50;5073613;28;20170;-61
2022/05/02 04:46:43;;;;;;;15.50;13.20;;;;;;;7.09;100.00;100234.16;5071709;28;20716;-60
2022/05/02 04:49:09;;;;;;;15.30;13.67;;;;;;;7.14;100.00;100242.47;5070974;28;20181;-60
2022/05/02 04:51:34;;;;;;;14.97;13.40;;;;;;;7.21;100.00;100241.34;5060922;28;20280;-60
2022/05/02 04:53:59;;;;;;;15.33;13.77;;;;;;;7.25;100.00;100239.50;5071838;28;20177;-61
2022/05/02 04:56:25;;;;;;;17.10;13.17;;;;;;;7.25;100.00;100245.44;5071594;28;20205;-60
2022/05/02 04:58:50;;;;;;;15.40;13.17;;;;;;;7.37;100.00;100245.91;5072110;28;20644;-59
2022/05/02 05:01:15;;;;;;;14.80;13.40;;;;;;;7.47;100.00;100243.78;5065252;28;20226;-61
2022/05/02 05:03:41;;;;;;;14.23;12.73;;;;;;;7.55;100.00;100241.75;5071333;28;20528;-60
2022/05/02 05:06:07;;;;;;;15.00;13.43;;;;;;;7.67;100.00;100251.50;5071405;28;20213;-60
2022/05/02 05:08:32;;;;;;;13.93;12.60;;;;;;;7.80;100.00;100239.06;5071664;28;20225;-60
2022/05/02 05:11:25;;;;;;;16.90;13.40;;;;;;;7.87;100.00;100247.31;5068184;28;20228;-60
2022/05/02 05:17:25;;;;;;;13.60;12.20;;;;;;;8.10;100.00;100235.28;5071034;28;20606;-61
2022/05/02 05:20:04;;;;;;;14.53;13.13;;;;;;;8.21;100.00;100231.38;5071930;28;20184;-60
2022/05/02 05:22:30;;;;;;;14.83;13.23;;;;;;;8.45;100.00;100227.84;5043496;28;20390;-60
2022/05/02 05:24:58;;;;;;;17.37;13.90;;;;;;;8.61;100.00;100233.97;5071768;28;20262;-60
2022/05/02 05:27:42;;;;;;;17.00;13.57;;;;;;;8.74;100.00;100224.00;5071051;28;20285;-60
2022/05/02 05:30:09;;;;;;;14.40;11.90;;;;;;;8.95;100.00;100227.31;5062152;28;20628;-60
2022/05/02 05:32:34;;;;;;;13.93;12.57;;;;;;;9.18;100.00;100220.31;5086414;28;20230;-59
2022/05/02 05:35:08;;;;;;;14.27;12.80;;;;;;;9.28;100.00;100226.66;5057164;28;20684;-59
2022/05/02 05:37:53;;;;;;;13.43;12.23;;;;;;;9.52;100.00;100219.50;5060248;28;20184;-59
2022/05/02 05:40:28;;;;;;;13.37;11.90;;;;;;;9.63;100.00;100221.56;5047249;28;20189;-59
2022/05/02 05:43:03;;;;;;;14.90;12.50;;;;;;;9.78;100.00;100219.97;5052888;28;20267;-59
2022/05/02 05:45:42;;;;;;;12.63;11.33;;;;;;;9.78;100.00;100217.41;5050696;28;20264;-59
2022/05/02 05:48:27;;;;;;;13.10;11.80;;;;;;;9.94;100.00;100224.38;5074093;28;20181;-59
2022/05/02 05:50:59;;;;;;;14.43;10.53;;;;;;;10.00;100.00;100227.47;5060753;28;20712;-59
2022/05/02 05:53:57;;;;;;;11.10;10.10;;;;;;;10.11;100.00;100232.06;5078828;28;20659;-59
2022/05/02 05:56:50;;;;;;;12.50;10.80;;;;;;;10.28;100.00;100235.50;5057409;28;20194;-60
2022/05/02 05:59:32;;;;;;;12.53;10.43;;;;;;;10.51;100.00;100231.78;5085077;28;20715;-59
2022/05/02 06:02:16;;;;;;;10.77;9.70;;;;;;;10.72;100.00;100237.53;5063203;28;20254;-59
2022/05/02 06:04:42;;;;;;;9.53;8.63;;;;;;;10.76;100.00;100231.31;5050813;28;20197;-60
2022/05/02 06:07:08;;;;;;;9.60;8.60;;;;;;;10.80;100.00;100237.13;5051237;28;20181;-59
2022/05/02 06:09:36;;;;;;;10.37;8.27;;;;;;;11.05;100.00;100236.66;5050554;28;20213;-60
2022/05/02 06:12:04;;;;;;;11.00;8.30;;;;;;;11.14;100.00;100240.47;5055540;28;20259;-59
2022/05/02 06:18:27;;;;;;;10.80;8.23;;;;;;;11.45;100.00;100242.19;5051409;28;20346;-60
2022/05/02 06:20:12;;;;;;;11.50;8.33;;;;;;;11.59;98.22;100236.25;5045945;28;20759;-60
2022/05/02 06:22:40;;;;;;;8.50;7.63;;;;;;;11.56;98.05;100243.31;5050895;28;20173;-60
2022/05/02 06:25:06;;;;;;;10.57;8.57;;;;;;;11.52;97.41;100240.06;5062559;28;20197;-59
2022/05/02 06:27:33;;;;;;;9.00;7.17;;;;;;;11.77;97.00;100236.94;5068774;28;20651;-64
2022/05/02 06:30:02;;;;;;;9.33;8.33;;;;;;;11.84;93.30;100241.75;5051623;28;20185;-60
2022/05/02 06:32:29;;;;;;;8.90;8.10;;;;;;;12.01;91.71;100236.47;5075415;28;20208;-60
2022/05/02 06:34:55;;;;;;;9.17;7.80;;;;;;;12.01;93.31;100233.91;5072985;28;20257;-60
2022/05/02 06:37:33;;;;;;;10.93;8.07;;;;;;;12.30;90.05;100235.69;5074001;28;20271;-60
2022/05/02 06:40:05;;;;;;;10.43;8.57;;;;;;;12.99;86.35;100228.88;5067327;28;20188;-59
2022/05/02 06:42:39;;;;;;;8.50;7.37;;;;;;;13.87;78.48;100230.22;5058786;28;20210;-61
2022/05/02 06:45:13;;;;;;;12.77;7.27;;;;;;;15.31;73.05;100228.94;5072091;28;20185;-60
2022/05/02 06:47:56;;;;;;;11.50;6.87;;;;;;;17.00;63.27;100223.25;5053701;28;20238;-61
2022/05/02 06:50:25;;;;;;;11.37;6.77;;;;;;;17.60;54.90;100228.81;5045799;28;20225;-59
2022/05/02 06:53:07;;;;;;;8.23;6.57;;;;;;;17.94;54.77;100227.78;5068452;28;20790;-60
2022/05/02 06:55:59;;;;;;;7.87;6.70;;;;;;;18.78;50.24;100222.38;5066617;28;20229;-59
2022/05/02 06:58:48;;;;;;;8.40;6.10;;;;;;;19.26;49.38;100231.22;5053902;28;20238;-60
2022/05/02 07:01:38;;;;;;;11.50;6.30;;;;;;;19.28;47.97;100225.91;5042211;28;20220;-61
2022/05/02 07:04:26;;;;;;;7.53;5.50;;;;;;;19.37;46.85;100227.66;5064802;28;20271;-60
2022/05/02 07:07:10;;;;;;;7.03;5.40;;;;;;;19.34;48.00;100226.16;5060072;28;20540;-60
2022/05/02 07:09:40;;;;;;;6.17;5.33;;;;;;;20.05;45.24;100225.97;5073382;28;20197;-61
2022/05/02 07:12:25;;;;;;;6.43;4.83;;;;;;;20.04;43.51;100230.34;5062321;28;20227;-60
2022/05/02 07:14:56;;;;;;;6.13;5.10;;;;;;;19.95;43.79;100225.97;5067304;28;20243;-59
2022/05/02 07:17:47;;;;;;;7.37;5.13;;;;;;;20.07;42.49;100224.84;5042226;28;20260;-59
2022/05/02 07:20:34;;;;;;;6.43;5.47;;;;;;;19.64;44.50;100229.56;5059743;28;20195;-60
2022/05/02 07:23:28;;;;;;;5.83;5.20;;;;;;;20.10;42.52;100214.09;5057994;28;20187;-61
2022/05/02 07:26:02;;;;;;;6.40;5.10;;;;;;;20.73;41.52;100217.81;5070999;28;20271;-60
2022/05/02 07:28:40;;;;;;;9.47;5.43;;;;;;;20.26;42.31;100218.72;5068350;28;20185;-60
2022/05/02 07:31:08;;;;;;;7.27;5.20;;;;;;;19.97;43.15;100226.63;5039571;28;20224;-61
2022/05/02 07:33:38;;;;;;;9.33;4.90;;;;;;;19.68;44.57;100222.28;5059685;28;20181;-61
2022/05/02 07:36:05;;;;;;;6.20;5.53;;;;;;;19.71;44.57;100236.84;5052277;28;20209;-60
2022/05/02 07:38:32;;;;;;;5.77;5.17;;;;;;;19.66;45.00;100232.88;5064634;28;20188;-60
2022/05/02 07:43:47;;;;;;;5.57;5.07;;;;;;;20.15;43.35;100230.16;5059580;28;20180;-60
2022/05/02 07:46:16;;;;;;;7.03;5.47;;;;;;;19.68;44.59;100235.34;5052767;28;20169;-60
2022/05/02 07:48:43;;;;;;;5.70;5.13;;;;;;;20.02;44.50;100240.13;5053056;28;20604;-61
2022/05/02 07:51:11;;;;;;;5.67;5.20;;;;;;;20.72;42.51;100247.53;5057032;28;20231;-60
2022/05/02 07:53:39;;;;;;;7.97;5.97;;;;;;;20.00;43.99;100244.66;5072625;28;20173;-60
2022/05/02 07:56:10;;;;;;;6.63;6.03;;;;;;;19.29;45.38;100251.03;5072545;28;20204;-60
2022/05/02 07:58:40;;;;;;;5.63;5.13;;;;;;;18.60;47.11;100242.22;5072782;28;20259;-60
2022/05/02 08:01:05;;;;;;;6.90;6.20;;;;;;;19.24;46.21;100241.00;5061934;28;20561;-60
2022/05/02 08:03:30;;;;;;;8.10;6.73;;;;;;;20.18;44.03;100234.31;5058950;28;20458;-62
2022/05/02 08:06:02;;;;;;;7.97;6.27;;;;;;;19.95;44.78;100237.22;5053020;28;20178;-63
2022/05/02 08:08:45;;;;;;;6.47;5.87;;;;;;;20.22;43.33;100233.03;5072686;28;20740;-62
2022/05/02 08:11:26;;;;;;;5.53;5.03;;;;;;;19.14;45.86;100234.97;5051978;28;20235;-64
2022/05/02 08:14:19;;;;;;;6.00;5.40;;;;;;;18.08;48.56;100234.47;5067718;28;20192;-63
2022/05/02 08:17:01;;;;;;;8.87;6.27;;;;;;;17.14;50.35;100242.94;5062236;28;20196;-62
2022/05/02 08:19:58;;;;;;;9.40;6.40;;;;;;;16.39;52.61;100243.47;5070534;28;20195;-64
2022/05/02 08:28:36;;;;;;;8.80;6.47;;;;;;;16.85;52.89;100236.47;5052308;28;20659;-61
2022/05/02 08:31:30;;;;;;;7.43;6.73;;;;;;;16.23;54.34;100236.03;5052896;28;20240;-58
2022/05/02 08:34:15;;;;;;;9.40;6.77;;;;;;;16.27;56.33;100228.84;5009664;28;20774;-60
2022/05/02 08:37:31;;;;;;;7.17;6.43;;;;;;;16.25;55.12;100233.34;5008963;28;20178;-59
2022/05/02 08:40:05;;;;;;;8.90;6.33;;;;;;;16.52;52.81;100226.94;4985824;28;20278;-60
2022/05/02 08:42:53;;;;;;;8.27;6.73;;;;;;;16.75;52.99;100228.56;4999674;28;20215;-60
2022/05/02 08:45:45;;;;;;;7.97;6.33;;;;;;;17.46;48.53;100227.31;4993453;28;20249;-59
2022/05/02 08:48:37;;;;;;;5.80;4.80;;;;;;;18.75;45.23;100235.66;5009861;28;20213;-60
2022/05/02 08:51:27;;;;;;;7.33;5.93;;;;;;;19.43;43.06;100241.97;4992287;28;20227;-60
2022/05/02 08:54:05;;;;;;;6.97;5.27;;;;;;;19.62;43.09;100223.69;4988951;28;20277;-60
2022/05/02 08:56:36;;;;;;;9.40;5.17;;;;;;;19.71;41.13;100226.41;5008833;28;20220;-59
2022/05/02 08:59:24;;;;;;;5.90;5.30;;;;;;;18.73;43.49;100223.72;4993351;28;20225;-60
2022/05/02 09:02:14;;;;;;;12.73;5.57;;;;;;;18.06;45.44;100226.78;4999839;28;20293;-59
2022/05/02 09:04:49;;;;;;;10.63;6.07;;;;;;;18.48;45.63;100220.66;5010065;28;20195;-59
2022/05/02 09:07:36;;;;;;;6.67;4.90;;;;;;;18.60;44.24;100216.16;5009428;28;20189;-59
2022/05/02 09:10:21;;;;;;;6.97;5.60;;;;;;;18.47;45.01;100213.78;5022642;28;20766;-60
2022/05/02 09:13:04;;;;;;;7.70;4.77;;;;;;;19.37;42.64;100211.22;5058944;28;20274;-60
2022/05/02 09:16:04;;;;;;;5.50;4.73;;;;;;;20.61;40.42;100214.53;5051109;28;20249;-59
2022/05/02 09:18:58;;;;;;;9.77;5.33;;;;;;;21.24;38.72;100215.53;5052487;28;20187;-60
2022/05/02 09:21:42;;;;;;;10.93;5.47;;;;;;;22.02;37.87;100205.31;5059268;28;20713;-61
2022/05/02 09:24:45;;;;;;;7.80;5.30;;;;;;;20.02;41.41;100210.56;5063390;28;20188;-61
2022/05/02 09:27:35;;;;;;;6.77;5.20;;;;;;;21.97;37.83;100202.31;5056576;28;20247;-60
2022/05/02 09:30:43;;;;;;;5.90;4.87;;;;;;;21.78;38.17;100212.03;5064399;28;20189;-60
2022/05/02 09:33:35;;;;;;;8.00;5.67;;;;;;;21.88;37.63;100201.44;5060820;28;20628;-65
2022/05/02 09:36:28;;;;;;;8.47;5.33;;;;;;;23.35;34.27;100207.31;5072883;28;20213;-67
2022/05/02 09:39:13;;;;;;;5.73;4.93;;;;;;;21.96;35.79;100204.13;5071648;28;20188;-64
2022/05/02 09:41:57;;;;;;;5.93;5.03;;;;;;;22.11;37.23;100193.06;5060429;28;20366;-63
2022/05/02 09:51:03;;;;;;;9.40;5.20;;;;;;;20.56;38.43;100198.50;5046990;28;20231;-65
2022/05/02 09:53:34;;;;;;;7.27;5.20;;;;;;;19.70;39.88;100202.09;5059676;28;20189;-65
2022/05/02 09:59:15;;;;;;;6.07;5.47;;;;;;;21.38;37.58;100187.19;5075109;28;20195;-65
2022/05/02 10:01:46;;;;;;;7.57;5.70;;;;;;;21.57;37.01;100184.41;5074986;28;20200;-65
2022/05/02 10:04:38;;;;;;;6.40;5.27;;;;;;;21.44;38.26;100184.78;5075917;28;20189;-65
2022/05/02 10:07:08;;;;;;;8.50;5.57;;;;;;;20.42;39.31;100175.50;5053576;28;20189;-65
2022/05/02 10:10:01;;;;;;;7.67;5.87;;;;;;;21.19;37.76;100180.34;5073913;28;20334;-63
2022/05/02 10:12:39;;;;;;;7.00;4.73;;;;;;;22.64;35.19;100171.00;5062998;28;20283;-66
2022/05/02 10:15:27;;;;;;;8.70;5.80;;;;;;;22.92;33.68;100175.94;5070821;28;20658;-65
2022/05/02 10:18:16;;;;;;;9.00;5.20;;;;;;;21.77;36.23;100173.75;5054609;28;20177;-66
2022/05/02 10:20:41;;;;;;;7.33;5.63;;;;;;;20.38;39.36;100167.13;5050219;28;20225;-67
2022/05/02 10:23:15;;;;;;;6.53;5.83;;;;;;;20.06;40.75;100168.34;5062041;28;20181;-66
2022/05/02 10:25:43;;;;;;;7.23;5.53;;;;;;;19.78;40.94;100159.63;5069257;28;20272;-66
2022/05/02 10:28:30;;;;;;;7.33;5.97;;;;;;;20.11;40.10;100157.50;5072786;28;20192;-67
2022/05/02 10:31:04;;;;;;;10.80;6.03;;;;;;;20.10;39.25;100167.09;5063739;28;20654;-66
2022/05/02 10:33:34;;;;;;;7.17;6.23;;;;;;;20.45;37.69;100162.13;5073721;28;20177;-66
2022/05/02 10:36:03;;;;;;;6.60;5.63;;;;;;;21.64;36.26;100160.25;5072844;28;20208;-66
2022/05/02 10:38:30;;;;;;;7.93;5.43;;;;;;;21.28;37.62;100148.88;5074376;28;20175;-67
2022/05/02 10:41:44;;;;;;;10.03;6.00;;;;;;;19.71;40.05;100145.50;5063721;28;20297;-67
2022/05/02 10:44:14;;;;;;;7.03;5.63;;;;;;;18.76;42.55;100150.53;4989780;28;20402;-64
2022/05/02 10:46:43;;;;;;;6.57;5.73;;;;;;;18.47;42.59;100152.13;5045003;28;20189;-65
2022/05/02 10:49:08;;;;;;;8.43;5.97;;;;;;;18.10;43.59;100149.25;5052834;28;20185;-65
2022/05/02 10:51:53;;;;;;;7.40;5.53;;;;;;;18.37;43.67;100140.88;5051789;28;20221;-65
2022/05/02 10:54:34;;;;;;;8.10;6.20;;;;;;;18.45;42.97;100134.97;5067731;28;20261;-66
2022/05/02 10:57:09;;;;;;;6.67;5.80;;;;;;;18.44;43.32;100125.50;5053697;28;20227;-64
2022/05/02 10:59:43;;;;;;;9.20;6.03;;;;;;;18.77;43.28;100126.94;5055385;28;20530;-63
2022/05/02 11:02:36;;;;;;;6.73;6.00;;;;;;;18.63;43.28;100135.97;5048330;28;20263;-59
2022/05/02 11:05:06;;;;;;;7.07;6.37;;;;;;;18.07;44.73;100124.31;5052262;28;20213;-59
2022/05/02 11:07:53;;;;;;;7.47;5.80;;;;;;;17.88;46.22;100138.84;5063075;28;20193;-61
2022/05/02 11:10:25;;;;;;;10.10;6.87;;;;;;;17.77;46.46;100127.72;5063148;28;20181;-59
2022/05/02 11:13:11;;;;;;;8.13;6.67;;;;;;;17.90;46.48;100128.34;5086572;28;20177;-59
2022/05/02 11:15:42;;;;;;;6.80;6.20;;;;;;;18.19;44.81;100119.84;5060707;28;20232;-61
2022/05/02 11:21:36;;;;;;;8.67;5.93;;;;;;;18.31;44.30;100118.78;5011411;28;20276;-60
2022/05/02 11:24:29;;;;;;;10.03;6.60;;;;;;;17.90;44.65;100116.13;5060101;28;20191;-59
2022/05/02 11:27:32;;;;;;;10.30;6.97;;;;;;;18.03;46.14;100104.72;5053090;28;20181;-59
2022/05/02 11:30:06;;;;;;;8.07;6.70;;;;;;;18.08;45.58;100114.72;5072723;28;20189;-59
2022/05/02 11:32:53;;;;;;;7.70;6.47;;;;;;;17.94;45.34;100111.53;5024201;28;20261;-60
2022/05/02 11:35:29;;;;;;;8.27;6.37;;;;;;;18.20;44.08;100113.69;5073312;28;20192;-59
2022/05/02 11:38:24;;;;;;;6.53;5.47;;;;;;;18.58;45.01;100122.53;5053375;28;20185;-59
2022/05/02 11:40:53;;;;;;;6.93;6.23;;;;;;;18.76;43.49;100109.63;5049624;28;20711;-60
2022/05/02 11:43:23;;;;;;;7.80;6.17;;;;;;;18.47;44.83;100112.22;5061593;28;20173;-60
2022/05/02 11:46:14;;;;;;;6.77;5.57;;;;;;;18.55;43.37;100112.38;5072753;28;20181;-60
2022/05/02 11:48:45;;;;;;;8.20;6.43;;;;;;;18.42;42.58;100114.41;5072770;28;20165;-59
2022/05/02 11:51:29;;;;;;;10.80;6.60;;;;;;;18.38;44.22;100111.22;5055224;28;20495;-59
2022/05/02 11:53:58;;;;;;;8.83;6.93;;;;;;;18.75;44.41;100109.78;5048959;28;20177;-59
2022/05/02 11:56:32;;;;;;;10.57;6.83;;;;;;;18.83;43.22;100104.72;5066638;28;20292;-60
2022/05/02 11:59:05;;;;;;;9.33;7.20;;;;;;;18.69;44.05;100095.50;5051307;28;20185;-60
2022/05/02 12:01:37;;;;;;;8.13;6.07;;;;;;;19.16;42.70;100100.88;5051520;28;20315;-59
2022/05/02 12:04:03;;;;;;;8.87;6.13;;;;;;;19.10;42.06;100096.22;5053935;28;20186;-59
2022/05/02 12:06:31;;;;;;;6.70;5.93;;;;;;;18.85;42.66;100108.00;5054798;28;20543;-59
2022/05/02 12:09:03;;;;;;;7.07;6.37;;;;;;;18.66;42.10;100093.19;5052712;28;20690;-60
2022/05/02 12:11:29;;;;;;;9.90;6.83;;;;;;;18.67;41.88;100100.06;5055292;28;20583;-60
2022/05/02 12:13:55;;;;;;;6.73;6.10;;;;;;;18.58;42.16;100088.66;5062125;28;20185;-59